createdAt,value
2018-02-13T00:01:28.202Z,-1.10
2018-02-13T00:03:55.837Z,-1.10
2018-02-13T00:06:23.449Z,-1.10
2018-02-13T00:08:51.113Z,-1.10
2018-02-13T00:11:18.729Z,-1.10
2018-02-13T00:13:46.340Z,-1.10
2018-02-13T00:16:13.980Z,-1.10
2018-02-13T00:18:41.595Z,-1.20
2018-02-13T00:21:09.240Z,-1.20
2018-02-13T00:23:36.848Z,-1.20
2018-02-13T00:26:04.460Z,-1.20
2018-02-13T00:28:32.865Z,-1.30
2018-02-13T00:31:01.253Z,-1.30
2018-02-13T00:33:28.908Z,-1.40
2018-02-13T00:35:56.520Z,-1.30
2018-02-13T00:38:24.136Z,-1.40
2018-02-13T00:40:51.785Z,-1.40
2018-02-13T00:43:19.412Z,-1.40
2018-02-13T00:45:47.828Z,-1.40
2018-02-13T00:48:15.445Z,-1.50
2018-02-13T00:50:43.063Z,-1.40
2018-02-13T00:53:11.468Z,-1.50
2018-02-13T00:55:39.080Z,-1.60
2018-02-13T00:58:06.725Z,-1.50
2018-02-13T01:00:34.337Z,-1.50
2018-02-13T01:03:01.949Z,-1.50
2018-02-13T01:05:30.365Z,-1.60
2018-02-13T01:07:57.980Z,-1.60
2018-02-13T01:10:25.628Z,-1.50
2018-02-13T01:12:53.232Z,-1.60
2018-02-13T01:15:20.845Z,-1.60
2018-02-13T01:17:48.480Z,-1.50
2018-02-13T01:20:16.092Z,-1.40
2018-02-13T01:22:43.706Z,-1.40
2018-02-13T01:25:11.348Z,-1.40
2018-02-13T01:27:38.962Z,-1.40
2018-02-13T01:30:06.590Z,-1.40
2018-02-13T01:32:34.232Z,-1.40
2018-02-13T01:35:02.631Z,-1.40
2018-02-13T01:37:30.240Z,-1.50
2018-02-13T01:39:57.876Z,-1.40
2018-02-13T01:42:26.256Z,-1.30
2018-02-13T01:44:53.913Z,-1.30
2018-02-13T01:47:21.528Z,-1.20
2018-02-13T01:49:49.901Z,-1.20
2018-02-13T01:52:17.544Z,-1.30
2018-02-13T01:54:45.155Z,-1.20
2018-02-13T01:57:12.808Z,-1.10
2018-02-13T01:59:40.412Z,-1.10
2018-02-13T02:02:08.784Z,-1.10
2018-02-13T02:04:36.416Z,-1.10
2018-02-13T02:07:04.020Z,-1.00
2018-02-13T02:09:31.660Z,-1.00
2018-02-13T02:11:59.277Z,-1.00
2018-02-13T02:14:26.882Z,-0.90
2018-02-13T02:16:55.285Z,-0.90
2018-02-13T02:19:22.901Z,-1.00
2018-02-13T02:21:50.549Z,-0.90
2018-02-13T02:24:18.158Z,-0.90
2018-02-13T02:26:45.770Z,-0.80
2018-02-13T02:29:13.408Z,-0.80
2018-02-13T02:31:41.012Z,-0.80
2018-02-13T02:34:09.424Z,-0.80
2018-02-13T02:36:37.033Z,-0.80
2018-02-13T02:39:04.650Z,-0.80
2018-02-13T02:41:33.057Z,-0.90
2018-02-13T02:44:00.666Z,-0.90
2018-02-13T02:46:28.313Z,-1.00
2018-02-13T02:48:55.922Z,-1.00
2018-02-13T02:51:23.532Z,-1.10
2018-02-13T02:53:51.928Z,-1.10
2018-02-13T02:56:20.319Z,-1.20
2018-02-13T02:58:48.726Z,-1.30
2018-02-13T03:01:16.332Z,-1.30
2018-02-13T03:03:43.952Z,-1.30
2018-02-13T03:06:11.585Z,-1.40
2018-02-13T03:08:39.188Z,-1.40
2018-02-13T03:11:06.848Z,-1.50
2018-02-13T03:13:34.456Z,-1.50
2018-02-13T03:16:02.841Z,-1.60
2018-02-13T03:18:31.238Z,-1.60
2018-02-13T03:20:59.609Z,-1.70
2018-02-13T03:23:27.257Z,-1.70
2018-02-13T03:25:54.876Z,-1.70
2018-02-13T03:28:22.493Z,-1.70
2018-02-13T03:30:50.133Z,-1.80
2018-02-13T03:33:18.521Z,-1.80
2018-02-13T03:35:46.945Z,-1.80
2018-02-13T03:38:14.552Z,-1.90
2018-02-13T03:40:42.168Z,-1.80
2018-02-13T03:43:09.904Z,-1.80
2018-02-13T03:45:37.530Z,-1.80
2018-02-13T03:48:05.180Z,-1.80
2018-02-13T03:50:33.549Z,-1.80
2018-02-13T03:53:01.154Z,-1.90
2018-02-13T03:55:29.548Z,-1.80
2018-02-13T03:57:57.917Z,-1.80
2018-02-13T04:00:25.577Z,-1.80
2018-02-13T04:02:53.193Z,-1.80
2018-02-13T04:05:20.796Z,-1.80
2018-02-13T04:07:48.425Z,-1.80
2018-02-13T04:10:16.796Z,-1.90
2018-02-13T04:12:44.441Z,-1.90
2018-02-13T04:15:12.056Z,-1.90
2018-02-13T04:17:39.663Z,-1.90
2018-02-13T04:20:07.291Z,-1.90
2018-02-13T04:22:34.896Z,-1.90
2018-02-13T04:25:03.311Z,-2.00
2018-02-13T04:27:30.915Z,-2.00
2018-02-13T04:29:58.529Z,-2.00
2018-02-13T04:32:26.933Z,-2.10
2018-02-13T04:34:54.540Z,-2.20
2018-02-13T04:37:22.180Z,-2.10
2018-02-13T04:39:49.786Z,-2.10
2018-02-13T04:42:17.396Z,-2.10
2018-02-13T04:44:45.037Z,-2.20
2018-02-13T04:47:12.672Z,-2.20
2018-02-13T04:49:40.316Z,-2.30
2018-02-13T04:52:07.933Z,-2.20
2018-02-13T04:54:35.554Z,-2.30
2018-02-13T04:57:03.201Z,-2.30
2018-02-13T04:59:30.816Z,-2.40
2018-02-13T05:01:58.557Z,-2.40
2018-02-13T05:04:26.177Z,-2.40
2018-02-13T05:06:54.576Z,-2.30
2018-02-13T05:09:22.987Z,-2.30
2018-02-13T05:11:50.606Z,-2.40
2018-02-13T05:14:18.264Z,-2.30
2018-02-13T05:16:45.889Z,-2.20
2018-02-13T05:19:13.523Z,-2.10
2018-02-13T05:21:41.164Z,-2.00
2018-02-13T05:24:08.777Z,-2.00
2018-02-13T05:26:36.432Z,-1.90
2018-02-13T05:29:04.050Z,-1.80
2018-02-13T05:31:32.429Z,-1.80
2018-02-13T05:34:00.073Z,-1.90
2018-02-13T05:36:27.704Z,-1.90
2018-02-13T05:38:55.348Z,-2.00
2018-02-13T05:41:24.396Z,-2.10
2018-02-13T05:43:52.013Z,-2.10
2018-02-13T05:46:19.655Z,-2.00
2018-02-13T05:48:47.273Z,-2.00
2018-02-13T05:51:14.938Z,-2.10
2018-02-13T05:53:42.701Z,-2.10
2018-02-13T05:56:10.324Z,-2.10
2018-02-13T05:58:38.730Z,-2.20
2018-02-13T06:01:07.161Z,-2.30
2018-02-13T06:03:34.985Z,-2.30
2018-02-13T06:06:03.378Z,-2.40
2018-02-13T06:08:31.990Z,-2.50
2018-02-13T06:10:59.639Z,-2.50
2018-02-13T06:13:27.253Z,-2.50
2018-02-13T06:15:54.904Z,-2.50
2018-02-13T06:18:22.535Z,-2.50
2018-02-13T06:20:50.177Z,-2.50
2018-02-13T06:23:17.828Z,-2.50
2018-02-13T06:25:46.215Z,-2.60
2018-02-13T06:28:14.653Z,-2.60
2018-02-13T06:30:42.269Z,-2.70
2018-02-13T06:33:09.886Z,-2.60
2018-02-13T06:35:37.557Z,-2.60
2018-02-13T06:38:05.169Z,-2.60
2018-02-13T06:40:32.826Z,-2.60
2018-02-13T06:43:00.452Z,-2.70
2018-02-13T06:45:28.074Z,-2.60
2018-02-13T06:47:55.721Z,-2.60
2018-02-13T06:50:23.349Z,-2.60
2018-02-13T06:52:50.994Z,-2.60
2018-02-13T06:55:18.608Z,-2.50
2018-02-13T06:57:46.263Z,-2.60
2018-02-13T07:00:13.884Z,-2.60
2018-02-13T07:02:41.505Z,-2.60
2018-02-13T07:05:09.141Z,-2.60
2018-02-13T07:07:36.761Z,-2.50
2018-02-13T07:10:04.416Z,-2.50
2018-02-13T07:12:32.028Z,-2.50
2018-02-13T07:15:00.413Z,-2.30
2018-02-13T07:17:28.056Z,-2.40
2018-02-13T07:19:55.679Z,-2.30
2018-02-13T07:22:24.107Z,-2.30
2018-02-13T07:24:51.728Z,-2.30
2018-02-13T07:27:19.354Z,-2.20
2018-02-13T07:29:46.992Z,-2.20
2018-02-13T07:32:15.369Z,-2.00
2018-02-13T07:34:43.028Z,-2.10
2018-02-13T07:37:10.668Z,-2.00
2018-02-13T07:39:38.301Z,-1.90
2018-02-13T07:42:06.700Z,-1.80
2018-02-13T07:44:35.095Z,-1.70
2018-02-13T07:47:03.513Z,-1.60
2018-02-13T07:49:31.156Z,-1.70
2018-02-13T07:51:58.781Z,-1.50
2018-02-13T07:54:26.433Z,-1.30
2018-02-13T07:56:54.053Z,-1.10
2018-02-13T07:59:21.708Z,-1.00
2018-02-13T08:01:49.384Z,-0.90
2018-02-13T08:04:17.001Z,-0.70
2018-02-13T08:06:45.409Z,-0.30
2018-02-13T08:09:13.029Z,-0.40
2018-02-13T08:11:40.681Z,-0.20
2018-02-13T08:14:08.298Z,0.00
2018-02-13T08:16:35.913Z,0.20
2018-02-13T08:19:03.637Z,0.30
2018-02-13T08:21:31.249Z,0.30
2018-02-13T08:23:59.665Z,0.50
2018-02-13T08:26:27.273Z,0.50
2018-02-13T08:28:54.888Z,0.60
2018-02-13T08:31:22.521Z,0.70
2018-02-13T08:33:50.129Z,0.90
2018-02-13T08:36:18.564Z,1.70
2018-02-13T08:38:46.178Z,1.70
2018-02-13T08:41:13.793Z,2.70
2018-02-13T08:43:41.429Z,3.40
2018-02-13T08:46:09.805Z,4.00
2018-02-13T08:48:37.453Z,3.90
2018-02-13T08:51:05.065Z,4.40
2018-02-13T08:53:32.676Z,4.40
2018-02-13T08:56:00.313Z,4.90
2018-02-13T08:58:27.924Z,5.30
2018-02-13T09:00:56.005Z,5.60
2018-02-13T09:03:23.629Z,6.00
2018-02-13T09:05:51.249Z,5.60
2018-02-13T09:08:18.960Z,6.20
2018-02-13T09:10:46.589Z,6.10
2018-02-13T09:13:14.207Z,6.10
2018-02-13T09:15:41.846Z,5.90
2018-02-13T09:18:09.465Z,6.40
2018-02-13T09:20:37.077Z,6.10
2018-02-13T09:23:05.521Z,5.30
2018-02-13T09:25:33.129Z,5.20
2018-02-13T09:28:00.744Z,5.30
2018-02-13T09:30:28.389Z,5.50
2018-02-13T09:32:56.773Z,5.70
2018-02-13T09:35:25.193Z,5.90
2018-02-13T09:37:52.809Z,5.90
2018-02-13T09:40:20.472Z,6.10
2018-02-13T09:42:48.089Z,6.30
2018-02-13T09:45:16.469Z,7.20
2018-02-13T09:47:44.117Z,7.10
2018-02-13T09:50:11.733Z,7.30
2018-02-13T09:52:39.356Z,7.00
2018-02-13T09:55:06.997Z,7.00
2018-02-13T09:57:34.605Z,7.10
2018-02-13T10:00:02.270Z,7.50
2018-02-13T10:02:29.889Z,7.70
2018-02-13T10:04:57.504Z,8.40
2018-02-13T10:07:25.210Z,8.30
2018-02-13T10:09:52.820Z,8.30
2018-02-13T10:12:20.477Z,8.10
2018-02-13T10:14:48.133Z,8.40
2018-02-13T10:17:15.777Z,8.20
2018-02-13T10:19:43.449Z,8.50
2018-02-13T10:22:11.061Z,8.80
2018-02-13T10:24:38.721Z,8.70
2018-02-13T10:27:06.332Z,9.20
2018-02-13T10:29:33.957Z,9.80
2018-02-13T10:32:01.602Z,9.50
2018-02-13T10:34:29.981Z,8.70
2018-02-13T10:36:57.638Z,8.60
2018-02-13T10:39:25.252Z,8.60
2018-02-13T10:41:52.865Z,8.90
2018-02-13T10:44:20.505Z,9.70
2018-02-13T10:46:48.314Z,9.90
2018-02-13T10:49:15.964Z,10.40
2018-02-13T10:51:43.591Z,10.30
2018-02-13T10:54:11.988Z,8.00
2018-02-13T10:56:39.670Z,8.00
2018-02-13T10:59:07.304Z,8.00
2018-02-13T11:01:37.790Z,8.40
2018-02-13T11:04:05.399Z,9.40
2018-02-13T11:06:33.013Z,10.30
2018-02-13T11:09:00.666Z,10.70
2018-02-13T11:11:28.288Z,10.70
2018-02-13T11:13:57.533Z,9.70
2018-02-13T11:16:25.149Z,9.60
2018-02-13T11:18:52.777Z,8.90
2018-02-13T11:21:20.412Z,8.40
2018-02-13T11:23:48.790Z,7.20
2018-02-13T11:26:16.490Z,7.20
2018-02-13T11:28:44.089Z,6.80
2018-02-13T11:31:11.708Z,6.70
2018-02-13T11:33:39.345Z,6.00
2018-02-13T11:36:06.956Z,5.50
2018-02-13T11:38:34.714Z,5.30
2018-02-13T11:41:02.330Z,5.50
2018-02-13T11:43:30.713Z,4.90
2018-02-13T11:45:58.456Z,4.80
2018-02-13T11:48:26.068Z,4.80
2018-02-13T11:50:53.713Z,5.00
2018-02-13T11:53:21.325Z,4.80
2018-02-13T11:55:49.713Z,5.00
2018-02-13T11:58:18.111Z,5.10
2018-02-13T12:00:46.492Z,5.00
2018-02-13T12:03:14.906Z,5.10
2018-02-13T12:05:42.514Z,5.00
2018-02-13T12:08:10.175Z,5.10
2018-02-13T12:10:37.868Z,5.20
2018-02-13T12:13:05.484Z,5.10
2018-02-13T12:15:33.897Z,4.80
2018-02-13T12:18:01.713Z,4.80
2018-02-13T12:20:29.324Z,4.60
2018-02-13T12:22:56.965Z,4.50
2018-02-13T12:25:36.522Z,4.60
2018-02-13T12:28:04.198Z,4.60
2018-02-13T12:30:31.864Z,4.60
2018-02-13T12:32:59.472Z,4.70
2018-02-13T12:35:27.104Z,4.70
2018-02-13T12:37:54.719Z,4.70
2018-02-13T12:40:22.361Z,4.60
2018-02-13T12:42:49.969Z,4.60
2018-02-13T12:45:17.581Z,4.60
2018-02-13T12:47:45.212Z,4.70
2018-02-13T12:50:12.810Z,4.70
2018-02-13T12:52:41.212Z,4.80
2018-02-13T12:55:08.824Z,4.70
2018-02-13T12:57:36.429Z,4.40
2018-02-13T13:00:04.065Z,4.30
2018-02-13T13:02:31.681Z,4.50
2018-02-13T13:05:00.086Z,5.00
2018-02-13T13:07:28.457Z,5.00
2018-02-13T13:09:56.065Z,4.90
2018-02-13T13:12:23.689Z,5.30
2018-02-13T13:14:51.293Z,5.50
2018-02-13T13:17:19.692Z,6.90
2018-02-13T13:19:48.056Z,7.50
2018-02-13T13:22:15.661Z,7.50
2018-02-13T13:24:43.307Z,7.00
2018-02-13T13:27:10.913Z,6.20
2018-02-13T13:29:38.623Z,6.10
2018-02-13T13:32:06.233Z,6.50
2018-02-13T13:34:33.855Z,6.80
2018-02-13T13:37:01.495Z,6.60
2018-02-13T13:39:29.868Z,7.70
2018-02-13T13:41:57.510Z,7.60
2018-02-13T13:44:25.186Z,8.50
2018-02-13T13:46:54.243Z,9.40
2018-02-13T13:49:21.874Z,8.90
2018-02-13T13:51:49.489Z,9.10
2018-02-13T13:54:17.905Z,10.70
2018-02-13T13:56:45.512Z,10.60
2018-02-13T13:59:13.116Z,10.40
2018-02-13T14:01:40.753Z,10.30
2018-02-13T14:04:08.369Z,11.50
2018-02-13T14:06:36.773Z,10.30
2018-02-13T14:09:05.140Z,9.60
2018-02-13T14:11:32.728Z,9.50
2018-02-13T14:14:01.124Z,7.70
2018-02-13T14:16:29.496Z,7.30
2018-02-13T14:19:02.769Z,7.20
2018-02-13T14:21:30.373Z,7.90
2018-02-13T14:23:57.972Z,8.40
2018-02-13T14:26:26.360Z,8.90
2018-02-13T14:28:54.724Z,8.30
2018-02-13T14:31:22.365Z,8.30
2018-02-13T14:33:49.969Z,7.70
2018-02-13T14:36:17.577Z,7.30
2018-02-13T14:38:45.976Z,6.60
2018-02-13T14:41:13.580Z,6.50
2018-02-13T14:43:41.227Z,6.10
2018-02-13T14:46:08.840Z,5.70
2018-02-13T14:48:36.449Z,5.80
2018-02-13T14:51:04.081Z,6.10
2018-02-13T14:53:31.719Z,5.90
2018-02-13T14:56:00.152Z,5.70
2018-02-13T14:58:27.756Z,5.60
2018-02-13T15:00:55.377Z,5.40
2018-02-13T15:03:23.022Z,5.50
2018-02-13T15:05:51.397Z,5.50
2018-02-13T15:08:19.037Z,5.50
2018-02-13T15:10:46.643Z,5.60
2018-02-13T15:13:14.244Z,5.30
2018-02-13T15:15:42.639Z,5.20
2018-02-13T15:21:06.088Z,5.10
2018-02-13T15:23:33.821Z,5.00
2018-02-13T15:26:02.237Z,4.80
2018-02-13T15:28:29.933Z,4.70
2018-02-13T15:30:57.541Z,4.80
2018-02-13T15:33:25.181Z,4.70
2018-02-13T15:35:52.796Z,4.40
2018-02-13T15:38:21.197Z,4.10
2018-02-13T15:40:49.573Z,4.20
2018-02-13T15:43:17.173Z,4.10
2018-02-13T15:45:45.570Z,4.20
2018-02-13T15:48:13.176Z,4.10
2018-02-13T15:50:40.823Z,4.10
2018-02-13T15:53:08.428Z,4.00
2018-02-13T15:55:36.098Z,3.90
2018-02-13T15:58:03.728Z,3.80
2018-02-13T16:00:31.354Z,3.80
2018-02-13T16:02:58.992Z,3.80
2018-02-13T16:05:26.696Z,3.70
2018-02-13T16:07:54.292Z,3.70
2018-02-13T16:10:21.911Z,3.60
2018-02-13T16:12:49.514Z,3.50
2018-02-13T16:15:17.160Z,3.40
2018-02-13T16:17:44.769Z,3.40
2018-02-13T16:20:12.380Z,3.30
2018-02-13T16:22:40.772Z,3.10
2018-02-13T16:25:08.387Z,3.00
2018-02-13T16:27:36.078Z,2.90
2018-02-13T16:30:03.676Z,2.80
2018-02-13T16:32:31.365Z,2.80
2018-02-13T16:34:59.020Z,2.70
2018-02-13T16:37:26.940Z,2.60
2018-02-13T16:39:55.340Z,2.30
2018-02-13T16:42:23.848Z,2.30
2018-02-13T16:44:51.462Z,2.20
2018-02-13T16:47:19.097Z,2.10
2018-02-13T16:49:46.791Z,1.90
2018-02-13T16:52:23.709Z,1.70
2018-02-13T16:54:51.353Z,1.60
2018-02-13T16:57:19.501Z,1.50
2018-02-13T16:59:47.878Z,1.30
2018-02-13T17:02:16.695Z,1.30
2018-02-13T17:04:44.356Z,1.20
2018-02-13T17:07:15.406Z,1.00
2018-02-13T17:09:43.965Z,0.90
2018-02-13T17:12:11.569Z,0.90
2018-02-13T17:14:39.173Z,0.90
2018-02-13T17:17:06.804Z,0.80
2018-02-13T17:19:34.416Z,0.60
2018-02-13T17:22:09.457Z,0.50
2018-02-13T17:24:37.772Z,0.40
2018-02-13T17:27:06.614Z,0.30
2018-02-13T17:29:34.193Z,0.20
2018-02-13T17:32:02.584Z,0.20
2018-02-13T17:34:30.784Z,0.10
2018-02-13T17:36:59.546Z,0.10
2018-02-13T17:39:39.009Z,-0.10
2018-02-13T17:42:07.504Z,-0.20
2018-02-13T17:44:35.317Z,-0.20
2018-02-13T17:47:04.816Z,-0.20
2018-02-13T17:49:33.392Z,-0.30
2018-02-13T17:52:01.056Z,-0.30
2018-02-13T17:54:30.200Z,-0.40
2018-02-13T17:56:57.821Z,-0.40
2018-02-13T17:59:25.455Z,-0.50
2018-02-13T18:01:53.112Z,-0.60
2018-02-13T18:04:22.121Z,-0.60
2018-02-13T18:06:50.076Z,-0.60
2018-02-13T18:09:17.722Z,-0.70
2018-02-13T18:11:45.369Z,-0.60
2018-02-13T18:14:12.981Z,-0.70
2018-02-13T18:16:40.641Z,-0.70
2018-02-13T18:19:08.320Z,-0.70
2018-02-13T18:21:35.928Z,-0.80
2018-02-13T18:24:03.629Z,-0.80
2018-02-13T18:26:31.285Z,-0.90
2018-02-13T18:28:58.950Z,-0.90
2018-02-13T18:31:26.645Z,-0.90
2018-02-13T18:33:54.283Z,-0.90
2018-02-13T18:36:21.957Z,-0.90
2018-02-13T18:38:49.573Z,-1.00
2018-02-13T18:41:17.225Z,-1.00
2018-02-13T18:43:44.872Z,-1.10
2018-02-13T18:46:13.093Z,-1.10
2018-02-13T18:48:40.742Z,-1.00
2018-02-13T18:51:09.469Z,-1.10
2018-02-13T18:53:37.484Z,-1.10
2018-02-13T18:56:05.105Z,-1.20
2018-02-13T18:58:33.531Z,-1.20
2018-02-13T19:01:01.194Z,-1.20
2018-02-13T19:03:28.810Z,-1.30
2018-02-13T19:05:57.240Z,-1.30
2018-02-13T19:08:24.845Z,-1.40
2018-02-13T19:10:52.496Z,-1.30
2018-02-13T19:13:20.138Z,-1.30
2018-02-13T19:15:48.520Z,-1.20
2018-02-13T19:18:16.941Z,-1.20
2018-02-13T19:20:44.556Z,-1.30
2018-02-13T19:23:12.536Z,-1.30
2018-02-13T19:25:40.194Z,-1.30
2018-02-13T19:28:07.958Z,-1.30
2018-02-13T19:30:35.604Z,-1.40
2018-02-13T19:33:03.225Z,-1.40
2018-02-13T19:35:30.842Z,-1.40
2018-02-13T19:37:59.248Z,-1.50
2018-02-13T19:40:26.878Z,-1.60
2018-02-13T19:42:54.534Z,-1.50
2018-02-13T19:45:22.765Z,-1.50
2018-02-13T19:47:50.577Z,-1.40
2018-02-13T19:50:18.542Z,-1.40
2018-02-13T19:52:46.156Z,-1.40
2018-02-13T19:55:13.805Z,-1.50
2018-02-13T19:57:41.447Z,-1.50
2018-02-13T20:00:10.881Z,-1.60
2018-02-13T20:02:39.421Z,-1.70
2018-02-13T20:05:08.390Z,-1.70
2018-02-13T20:07:36.060Z,-1.70
2018-02-13T20:10:03.684Z,-1.80
2018-02-13T20:12:32.102Z,-1.80
2018-02-13T20:15:00.514Z,-1.80
2018-02-13T20:17:28.915Z,-1.80
2018-02-13T20:19:56.552Z,-1.90
2018-02-13T20:22:26.025Z,-1.80
2018-02-13T20:24:53.654Z,-1.90
2018-02-13T20:27:22.047Z,-1.90
2018-02-13T20:29:51.564Z,-1.90
2018-02-13T20:32:21.096Z,-1.90
2018-02-13T20:34:49.530Z,-1.90
2018-02-13T20:37:23.955Z,-2.00
2018-02-13T20:39:52.413Z,-1.90
2018-02-13T20:42:20.958Z,-2.00
2018-02-13T20:44:48.578Z,-2.00
2018-02-13T20:47:17.002Z,-2.00
2018-02-13T20:49:44.690Z,-2.10
2018-02-13T20:52:12.413Z,-2.00
2018-02-13T20:54:40.652Z,-2.00
2018-02-13T20:57:08.318Z,-2.10
2018-02-13T20:59:36.528Z,-2.10
2018-02-13T21:02:04.145Z,-2.10
2018-02-13T21:04:32.563Z,-2.20
2018-02-13T21:07:00.178Z,-2.20
2018-02-13T21:09:27.813Z,-2.30
2018-02-13T21:11:55.452Z,-2.20
2018-02-13T21:14:23.081Z,-2.30
2018-02-13T21:16:50.703Z,-2.20
2018-02-13T21:19:20.285Z,-2.30
2018-02-13T21:21:48.427Z,-2.30
2018-02-13T21:24:16.480Z,-2.30
2018-02-13T21:26:44.509Z,-2.20
2018-02-13T21:29:12.129Z,-2.20
2018-02-13T21:31:40.334Z,-2.20
2018-02-13T21:34:08.729Z,-2.40
2018-02-13T21:36:37.117Z,-2.40
2018-02-13T21:39:04.769Z,-2.50
2018-02-13T21:41:32.388Z,-2.40
2018-02-13T21:44:00.038Z,-2.50
2018-02-13T21:46:28.604Z,-2.40
2018-02-13T21:48:56.773Z,-2.30
2018-02-13T21:51:24.401Z,-2.40
2018-02-13T21:53:53.451Z,-2.60
2018-02-13T21:56:21.080Z,-2.60
2018-02-13T21:58:50.642Z,-2.70
2018-02-13T22:01:18.335Z,-2.70
2018-02-13T22:03:45.949Z,-2.70
2018-02-13T22:06:14.391Z,-2.70
2018-02-13T22:08:42.013Z,-2.70
2018-02-13T22:11:10.800Z,-2.60
2018-02-13T22:13:38.953Z,-2.70
2018-02-13T22:16:06.906Z,-2.70
2018-02-13T22:18:34.553Z,-2.80
2018-02-13T22:21:02.169Z,-2.80
2018-02-13T22:23:30.085Z,-2.80
2018-02-13T22:25:57.711Z,-2.90
2018-02-13T22:28:25.542Z,-2.90
2018-02-13T22:30:53.190Z,-3.00
2018-02-13T22:33:20.936Z,-3.00
2018-02-13T22:35:48.588Z,-3.00
2018-02-13T22:38:16.201Z,-2.90
2018-02-13T22:40:44.039Z,-2.90
2018-02-13T22:43:12.559Z,-3.00
2018-02-13T22:45:40.189Z,-3.00
2018-02-13T22:48:07.950Z,-3.00
2018-02-13T22:50:35.603Z,-3.00
2018-02-13T22:53:03.230Z,-3.00
2018-02-13T22:55:30.904Z,-3.00
2018-02-13T22:57:58.538Z,-3.10
2018-02-13T23:00:26.197Z,-3.10
2018-02-13T23:02:53.816Z,-3.10
2018-02-13T23:05:21.448Z,-3.10
2018-02-13T23:07:49.089Z,-3.20
2018-02-13T23:10:16.721Z,-3.20
2018-02-13T23:12:44.385Z,-3.20
2018-02-13T23:15:12.044Z,-3.20
2018-02-13T23:17:39.655Z,-3.20
2018-02-13T23:20:07.300Z,-3.30
2018-02-13T23:22:35.093Z,-3.30
2018-02-13T23:25:02.756Z,-3.20
2018-02-13T23:27:30.372Z,-3.20
2018-02-13T23:29:57.993Z,-3.20
2018-02-13T23:32:25.637Z,-3.30
2018-02-13T23:34:53.257Z,-3.40
2018-02-13T23:37:20.912Z,-3.40
2018-02-13T23:39:48.538Z,-3.50
2018-02-13T23:42:16.185Z,-3.50
2018-02-13T23:44:43.829Z,-3.50
2018-02-13T23:47:11.453Z,-3.40
2018-02-13T23:49:39.113Z,-3.50
2018-02-13T23:52:06.732Z,-3.50
2018-02-13T23:54:35.120Z,-3.50
2018-02-13T23:57:03.545Z,-3.60
2018-02-13T23:59:31.160Z,-3.60
